createdAt,value
2023-02-25T00:02:02.585Z,91.63
2023-02-25T00:07:29.563Z,91.66
2023-02-25T00:12:54.111Z,91.86
2023-02-25T00:18:18.258Z,92.21
2023-02-25T00:23:44.515Z,92.06
2023-02-25T00:29:09.094Z,92.14
2023-02-25T00:34:33.402Z,92.54
2023-02-25T00:39:58.171Z,92.26
2023-02-25T00:45:24.633Z,92.45
2023-02-25T00:50:49.402Z,92.46
2023-02-25T00:56:16.287Z,92.92
2023-02-25T01:01:40.851Z,92.81
2023-02-25T01:07:05.436Z,92.97
2023-02-25T01:12:31.104Z,93.45
2023-02-25T01:17:55.614Z,93.59
2023-02-25T01:23:21.832Z,93.97
2023-02-25T01:28:47.066Z,93.86
2023-02-25T01:34:15.518Z,94.14
2023-02-25T01:39:41.526Z,94.31
2023-02-25T01:45:14.551Z,94.07
2023-02-25T01:50:52.744Z,93.87
2023-02-25T01:56:21.274Z,93.76
2023-02-25T02:01:46.367Z,93.41
2023-02-25T02:07:11.419Z,93.02
2023-02-25T02:12:39.796Z,93.02
2023-02-25T02:18:06.432Z,92.74
2023-02-25T02:24:22.208Z,92.55
2023-02-25T02:29:52.064Z,92.32
2023-02-25T02:35:40.735Z,92.24
2023-02-25T02:41:36.743Z,92.03
2023-02-25T02:47:07.304Z,91.32
2023-02-25T02:52:34.774Z,91.32
2023-02-25T02:58:22.497Z,91.20
2023-02-25T03:03:55.144Z,90.59
2023-02-25T03:09:25.614Z,90.80
2023-02-25T03:14:49.907Z,90.19
2023-02-25T03:20:24.302Z,90.29
2023-02-25T03:25:56.890Z,89.73
2023-02-25T03:31:46.507Z,89.66
2023-02-25T03:37:17.296Z,89.92
2023-02-25T03:42:51.490Z,90.47
2023-02-25T03:48:19.453Z,91.18
2023-02-25T03:53:43.213Z,91.72
2023-02-25T03:59:16.999Z,92.16
2023-02-25T04:04:42.767Z,92.26
2023-02-25T04:10:09.944Z,92.79
2023-02-25T04:15:34.660Z,92.77
2023-02-25T04:20:59.703Z,92.92
2023-02-25T04:26:24.564Z,93.03
2023-02-25T04:31:49.346Z,93.24
2023-02-25T04:37:13.963Z,93.32
2023-02-25T04:42:38.442Z,93.48
2023-02-25T04:48:03.875Z,93.77
2023-02-25T04:53:28.453Z,93.81
2023-02-25T04:58:54.296Z,94.15
2023-02-25T05:04:18.734Z,93.94
2023-02-25T05:09:43.240Z,93.98
2023-02-25T05:15:08.917Z,93.78
2023-02-25T05:20:33.690Z,94.39
2023-02-25T05:26:00.456Z,94.81
2023-02-25T05:31:26.394Z,94.76
2023-02-25T05:36:50.858Z,94.88
2023-02-25T05:42:15.296Z,94.67
2023-02-25T05:47:39.877Z,95.08
2023-02-25T05:53:04.734Z,95.32
2023-02-25T05:58:29.619Z,95.57
2023-02-25T06:03:53.844Z,95.44
2023-02-25T06:09:19.351Z,95.64
2023-02-25T06:14:43.991Z,95.63
2023-02-25T06:20:08.955Z,95.63
2023-02-25T06:25:34.252Z,96.01
2023-02-25T06:30:58.559Z,95.45
2023-02-25T06:36:22.677Z,95.53
2023-02-25T06:41:46.841Z,95.66
2023-02-25T06:47:30.275Z,95.71
2023-02-25T06:52:54.851Z,95.48
2023-02-25T06:58:19.672Z,95.18
2023-02-25T07:03:44.448Z,94.91
2023-02-25T07:09:08.997Z,95.17
2023-02-25T07:14:33.809Z,94.63
2023-02-25T07:19:58.673Z,94.24
2023-02-25T07:25:23.158Z,94.40
2023-02-25T07:30:48.994Z,94.14
2023-02-25T07:36:15.501Z,94.46
2023-02-25T07:41:40.514Z,94.55
2023-02-25T07:47:12.261Z,94.66
2023-02-25T07:52:39.140Z,94.60
2023-02-25T07:58:05.316Z,94.84
2023-02-25T08:03:31.812Z,94.58
2023-02-25T08:08:56.993Z,94.57
2023-02-25T08:14:22.063Z,94.55
2023-02-25T08:19:46.553Z,94.65
2023-02-25T08:25:11.673Z,94.34
2023-02-25T08:30:37.492Z,94.45
2023-02-25T08:36:21.050Z,94.15
2023-02-25T08:42:21.241Z,94.39
2023-02-25T08:48:20.439Z,94.12
2023-02-25T08:54:19.375Z,93.45
2023-02-25T09:00:19.234Z,93.14
2023-02-25T09:06:23.364Z,92.89
2023-02-25T09:11:48.624Z,92.47
2023-02-25T09:17:13.158Z,92.14
2023-02-25T09:22:40.528Z,91.79
2023-02-25T09:28:05.342Z,91.42
2023-02-25T09:33:31.793Z,91.52
2023-02-25T09:38:58.629Z,91.34
2023-02-25T09:44:39.717Z,90.61
2023-02-25T09:50:24.049Z,90.37
2023-02-25T09:55:51.281Z,90.13
2023-02-25T10:01:52.096Z,90.40
2023-02-25T10:07:26.946Z,89.98
2023-02-25T10:13:02.810Z,90.55
2023-02-25T10:18:46.389Z,90.71
2023-02-25T10:24:22.876Z,90.08
2023-02-25T10:29:53.067Z,90.15
2023-02-25T10:35:17.948Z,90.49
2023-02-25T10:40:42.748Z,90.22
2023-02-25T10:46:44.990Z,90.33
2023-02-25T10:52:18.160Z,89.93
2023-02-25T10:57:43.533Z,89.91
2023-02-25T11:03:16.247Z,89.71
2023-02-25T11:08:41.574Z,89.33
2023-02-25T11:14:15.629Z,89.27
2023-02-25T11:19:47.679Z,88.89
2023-02-25T11:25:19.224Z,89.37
2023-02-25T11:30:43.460Z,88.74
2023-02-25T11:36:08.493Z,86.98
2023-02-25T11:41:33.169Z,86.84
2023-02-25T11:47:03.794Z,85.58
2023-02-25T11:52:38.543Z,85.91
2023-02-25T11:58:31.641Z,85.07
2023-02-25T12:04:14.548Z,86.27
2023-02-25T12:10:03.240Z,87.93
2023-02-25T12:15:30.593Z,88.34
2023-02-25T12:21:22.810Z,88.73
2023-02-25T12:27:10.121Z,89.01
2023-02-25T12:32:43.310Z,89.49
2023-02-25T12:39:13.012Z,89.89
2023-02-25T12:44:49.608Z,89.80
2023-02-25T12:50:51.931Z,90.61
2023-02-25T12:56:34.200Z,90.13
2023-02-25T13:02:17.430Z,90.24
2023-02-25T13:07:44.726Z,90.53
2023-02-25T13:13:42.408Z,89.96
2023-02-25T13:19:42.215Z,90.20
2023-02-25T13:25:47.757Z,89.21
2023-02-25T13:31:52.318Z,88.99
2023-02-25T13:37:42.651Z,88.87
2023-02-25T13:43:37.619Z,89.18
2023-02-25T13:49:10.967Z,89.92
2023-02-25T13:54:58.669Z,89.76
2023-02-25T14:00:37.086Z,90.01
2023-02-25T14:06:15.822Z,90.59
2023-02-25T14:12:13.165Z,90.73
2023-02-25T14:17:47.321Z,90.77
2023-02-25T14:23:45.084Z,90.72
2023-02-25T14:29:37.304Z,90.72
2023-02-25T14:35:30.492Z,90.93
2023-02-25T14:41:32.178Z,91.40
2023-02-25T14:47:15.098Z,91.46
2023-02-25T14:53:23.244Z,91.69
2023-02-25T14:59:16.589Z,91.45
2023-02-25T15:05:10.821Z,91.53
2023-02-25T15:17:14.252Z,91.74
2023-02-25T15:23:21.900Z,91.99
2023-02-25T15:28:57.168Z,91.50
2023-02-25T15:34:24.765Z,91.34
2023-02-25T15:40:16.773Z,91.53
2023-02-25T15:45:48.123Z,92.05
2023-02-25T15:51:48.822Z,91.97
2023-02-25T15:57:23.713Z,92.51
2023-02-25T16:03:08.444Z,92.50
2023-02-25T16:08:51.886Z,92.11
2023-02-25T16:38:25.349Z,92.41
2023-02-25T16:43:55.708Z,92.36
2023-02-25T16:49:41.045Z,92.42
2023-02-25T16:55:12.722Z,92.59
2023-02-25T17:00:53.425Z,92.23
2023-02-25T17:06:21.270Z,92.24
2023-02-25T17:11:55.629Z,92.04
2023-02-25T17:17:53.556Z,91.85
2023-02-25T17:23:26.573Z,91.57
2023-02-25T17:29:01.200Z,91.79
2023-02-25T17:34:35.915Z,91.89
2023-02-25T17:40:09.770Z,91.86
2023-02-25T17:45:50.184Z,92.14
2023-02-25T17:51:32.963Z,91.93
2023-02-25T17:57:16.116Z,92.22
2023-02-25T18:02:48.213Z,92.21
2023-02-25T18:09:09.200Z,92.32
2023-02-25T18:14:47.323Z,92.20
2023-02-25T18:20:48.273Z,92.49
2023-02-25T18:26:22.501Z,92.57
2023-02-25T18:31:52.168Z,92.74
2023-02-25T18:37:22.654Z,92.66
2023-02-25T18:42:52.120Z,92.98
2023-02-25T18:48:23.889Z,93.11
2023-02-25T18:53:58.048Z,93.09
2023-02-25T18:59:28.895Z,93.15
2023-02-25T19:05:03.320Z,92.98
2023-02-25T19:10:36.497Z,92.97
2023-02-25T19:16:07.527Z,92.94
2023-02-25T19:21:46.872Z,93.08
2023-02-25T19:27:24.907Z,93.20
2023-02-25T19:32:56.190Z,93.29
2023-02-25T19:38:23.221Z,93.33
2023-02-25T19:43:55.721Z,93.48
2023-02-25T19:49:30.501Z,93.23
2023-02-25T19:55:03.770Z,93.60
2023-02-25T20:00:40.104Z,93.23
2023-02-25T20:06:13.637Z,92.77
2023-02-25T20:11:44.940Z,92.83
2023-02-25T20:17:09.548Z,92.97
2023-02-25T20:22:33.663Z,93.16
2023-02-25T20:28:00.545Z,92.91
2023-02-25T20:33:28.394Z,92.96
2023-02-25T20:39:02.701Z,92.86
2023-02-25T20:44:27.335Z,93.12
2023-02-25T20:49:51.677Z,93.07
2023-02-25T20:55:15.802Z,92.86
2023-02-25T21:00:40.107Z,92.56
2023-02-25T21:06:04.854Z,92.44
2023-02-25T21:11:29.675Z,92.48
2023-02-25T21:16:57.224Z,92.09
2023-02-25T21:22:21.803Z,92.23
2023-02-25T21:27:46.769Z,92.33
2023-02-25T21:33:12.538Z,92.58
2023-02-25T21:38:38.750Z,92.48
2023-02-25T21:44:04.842Z,92.59
2023-02-25T21:49:31.717Z,92.63
2023-02-25T21:54:55.989Z,92.56
2023-02-25T22:00:20.778Z,92.59
2023-02-25T22:05:47.205Z,92.47
2023-02-25T22:11:21.265Z,92.50
2023-02-25T22:16:46.165Z,92.57
2023-02-25T22:22:10.171Z,92.64
2023-02-25T22:27:34.597Z,92.64
2023-02-25T22:32:59.289Z,92.86
2023-02-25T22:38:23.808Z,92.81
2023-02-25T22:43:49.556Z,92.55
2023-02-25T22:49:14.182Z,92.09
2023-02-25T22:54:37.967Z,92.09
2023-02-25T23:00:02.344Z,91.97
2023-02-25T23:05:26.989Z,92.16
2023-02-25T23:10:51.411Z,92.31
2023-02-25T23:16:22.981Z,92.68
2023-02-25T23:21:48.232Z,92.63
2023-02-25T23:27:13.095Z,92.58
2023-02-25T23:32:37.229Z,92.35
2023-02-25T23:38:01.858Z,91.98
2023-02-25T23:43:26.467Z,91.86
2023-02-25T23:48:55.786Z,91.64
2023-02-25T23:54:22.683Z,91.67
2023-02-25T23:59:47.058Z,91.85
